Time;durP1;ratioP1;P1;durP2;ratioP2;P2;SDS_P1;SDS_P2;PMS_P1;PMS_P2;Temp;Humidity;BMP_temperature;BMP_pressure;BME280_temperature;BME280_humidity;BME280_pressure;Samples;Min_cycle;Max_cycle;Signal;HPM_P1;HPM_P2
2023/12/04 00:01:33;;;;;;;4.13;3.40;;;14.20;65.30;;;;;;5056680;28;20179;-92
2023/12/04 00:03:59;;;;;;;3.50;3.20;;;14.10;65.20;;;;;;5047416;28;20170;-93
2023/12/04 00:06:25;;;;;;;3.40;3.10;;;14.00;64.90;;;;;;5058625;28;20508;-93
2023/12/04 00:08:51;;;;;;;4.40;3.50;;;13.90;66.30;;;;;;5047483;28;20279;-94
2023/12/04 00:11:17;;;;;;;3.70;3.40;;;13.90;66.20;;;;;;5058836;28;20173;-92
2023/12/04 00:13:42;;;;;;;5.77;3.30;;;13.90;66.50;;;;;;5045246;28;20446;-93
2023/12/04 00:16:08;;;;;;;4.63;3.83;;;13.80;66.50;;;;;;5057802;28;20238;-93
2023/12/04 00:18:34;;;;;;;4.03;3.60;;;13.80;66.60;;;;;;5045570;28;20585;-91
2023/12/04 00:21:00;;;;;;;3.67;3.20;;;13.80;65.70;;;;;;5057288;28;20164;-90
2023/12/04 00:23:26;;;;;;;3.50;3.20;;;14.00;66.00;;;;;;5048498;28;20172;-91
2023/12/04 00:25:52;;;;;;;3.50;3.10;;;14.10;65.10;;;;;;5054905;28;20267;-91
2023/12/04 00:28:18;;;;;;;3.40;3.10;;;14.40;63.50;;;;;;5050516;28;20195;-91
2023/12/04 00:30:43;;;;;;;5.13;3.30;;;14.70;62.50;;;;;;5051466;28;20267;-91
2023/12/04 00:33:09;;;;;;;3.80;3.40;;;14.80;60.90;;;;;;5053866;28;20181;-94
2023/12/04 00:35:34;;;;;;;3.50;3.03;;;15.10;61.10;;;;;;5050050;28;20206;-93
2023/12/04 00:38:00;;;;;;;3.70;3.10;;;15.30;60.30;;;;;;5052387;28;20226;-94
2023/12/04 00:40:26;;;;;;;3.80;3.40;;;15.60;59.30;;;;;;5046603;28;20311;-93
2023/12/04 00:42:52;;;;;;;5.77;3.57;;;15.60;59.30;;;;;;5054977;28;20178;-94
2023/12/04 00:45:17;;;;;;;3.50;2.83;;;15.60;58.70;;;;;;5045804;28;20165;-93
2023/12/04 00:47:43;;;;;;;4.20;3.33;;;15.90;58.70;;;;;;5056291;28;20168;-93
2023/12/04 00:50:10;;;;;;;3.20;2.90;;;15.80;58.40;;;;;;5044347;28;20266;-93
2023/12/04 00:52:37;;;;;;;3.17;2.87;;;15.80;58.30;;;;;;5058410;28;20170;-93
2023/12/04 00:55:03;;;;;;;3.07;2.77;;;15.70;57.60;;;;;;5051569;28;20545;-93
2023/12/04 00:57:29;;;;;;;3.03;2.70;;;15.40;57.10;;;;;;5038628;28;20205;-94
2023/12/04 00:59:54;;;;;;;3.07;2.70;;;15.20;58.50;;;;;;5049280;28;20455;-94
2023/12/04 01:02:20;;;;;;;3.43;2.80;;;15.10;58.70;;;;;;5039407;28;20171;-93
2023/12/04 01:04:46;;;;;;;4.00;2.90;;;14.80;58.20;;;;;;5054800;28;20174;-93
2023/12/04 01:07:12;;;;;;;3.40;3.07;;;14.80;58.70;;;;;;5045938;28;20177;-93
2023/12/04 01:09:37;;;;;;;3.00;2.67;;;14.80;59.60;;;;;;5042171;28;20229;-92
2023/12/04 01:12:04;;;;;;;3.37;2.90;;;14.70;59.20;;;;;;5043556;28;20185;-94
2023/12/04 01:14:30;;;;;;;4.27;2.83;;;14.60;59.20;;;;;;5040015;28;20559;-94
2023/12/04 01:16:56;;;;;;;3.50;3.00;;;14.50;60.00;;;;;;5043102;28;20208;-94
2023/12/04 01:19:21;;;;;;;3.37;2.80;;;14.40;59.80;;;;;;5035812;28;20168;-93
2023/12/04 01:21:48;;;;;;;3.27;2.80;;;14.40;61.00;;;;;;5045487;28;20163;-93
2023/12/04 01:24:15;;;;;;;2.90;2.60;;;14.30;61.10;;;;;;5036924;28;20199;-94
2023/12/04 01:26:41;;;;;;;3.07;2.57;;;14.20;60.80;;;;;;5044399;28;20552;-93
2023/12/04 01:29:07;;;;;;;3.63;2.90;;;14.30;61.70;;;;;;5054788;28;20189;-93
2023/12/04 01:31:33;;;;;;;3.67;2.70;;;14.20;61.40;;;;;;5055408;28;20176;-94
2023/12/04 01:33:59;;;;;;;5.27;2.73;;;14.10;61.40;;;;;;5056598;28;20351;-93
2023/12/04 01:36:24;;;;;;;2.80;2.60;;;14.10;61.80;;;;;;5042293;28;20234;-93
2023/12/04 01:38:50;;;;;;;3.57;2.80;;;14.10;62.00;;;;;;5057298;28;20172;-94
2023/12/04 01:41:16;;;;;;;3.20;2.90;;;14.10;61.30;;;;;;5045630;28;20564;-94
2023/12/04 01:43:42;;;;;;;2.90;2.50;;;14.00;62.00;;;;;;5056899;28;20183;-94
2023/12/04 01:46:07;;;;;;;2.60;2.40;;;14.10;62.40;;;;;;5049353;28;20174;-93
2023/12/04 01:48:33;;;;;;;3.23;2.50;;;14.10;62.20;;;;;;5052849;28;20522;-95
2023/12/04 01:51:01;;;;;;;2.90;2.60;;;14.20;62.20;;;;;;5051257;28;20244;-93
2023/12/04 01:53:28;;;;;;;2.63;2.40;;;14.20;60.20;;;;;;5042916;28;20208;-93
2023/12/04 01:55:54;;;;;;;4.53;2.30;;;14.40;60.90;;;;;;5053998;28;20172;-93
2023/12/04 01:58:20;;;;;;;2.53;2.33;;;14.60;60.10;;;;;;5049402;28;20212;-93
2023/12/04 02:00:46;;;;;;;3.20;2.70;;;14.60;59.80;;;;;;5054776;28;20165;-94
2023/12/04 02:03:12;;;;;;;2.67;2.47;;;14.80;59.40;;;;;;5044811;28;20181;-93
2023/12/04 02:05:39;;;;;;;2.77;2.50;;;14.90;59.00;;;;;;5052371;28;20599;-93
2023/12/04 02:08:05;;;;;;;2.47;2.27;;;15.00;58.90;;;;;;5046869;28;20197;-93
2023/12/04 02:10:31;;;;;;;2.80;2.50;;;15.20;58.80;;;;;;5036051;28;20172;-91
2023/12/04 02:12:58;;;;;;;3.73;2.03;;;15.20;58.60;;;;;;5049198;28;20205;-91
2023/12/04 02:15:23;;;;;;;2.57;2.13;;;15.30;58.20;;;;;;5040496;28;20453;-91
2023/12/04 02:17:50;;;;;;;2.57;2.30;;;15.20;58.40;;;;;;5046882;28;20208;-91
2023/12/04 02:20:17;;;;;;;2.30;2.07;;;15.40;58.10;;;;;;5062021;28;20216;-91
2023/12/04 02:22:42;;;;;;;2.40;2.20;;;15.30;57.30;;;;;;5049904;28;20204;-91
2023/12/04 02:25:10;;;;;;;2.30;2.10;;;15.40;58.10;;;;;;5060847;28;20172;-91
2023/12/04 02:27:46;;;;;;;2.60;2.40;;;15.40;57.90;;;;;;5055792;28;20596;-92
2023/12/04 02:30:13;;;;;;;3.00;2.50;;;15.30;57.80;;;;;;5042017;28;20185;-91
2023/12/04 02:32:45;;;;;;;2.70;2.40;;;15.40;57.60;;;;;;5048639;28;20178;-91
2023/12/04 02:35:12;;;;;;;2.67;2.33;;;15.30;57.90;;;;;;5043067;28;20193;-91
2023/12/04 02:37:40;;;;;;;2.30;2.10;;;15.30;57.50;;;;;;5045096;28;20223;-91
2023/12/04 02:40:06;;;;;;;2.70;2.40;;;15.30;57.40;;;;;;5054041;28;20174;-91
2023/12/04 02:42:32;;;;;;;2.50;2.20;;;15.30;58.10;;;;;;5054827;28;20560;-91
2023/12/04 02:44:58;;;;;;;2.13;1.93;;;15.20;57.90;;;;;;5052253;28;20286;-92
2023/12/04 02:47:24;;;;;;;2.70;2.50;;;15.10;58.00;;;;;;5057631;28;20181;-92
2023/12/04 02:49:51;;;;;;;2.80;2.43;;;14.90;58.10;;;;;;5049841;28;20192;-91
2023/12/04 02:52:16;;;;;;;2.63;2.30;;;14.80;58.00;;;;;;5058769;28;20204;-91
2023/12/04 02:54:42;;;;;;;2.83;2.40;;;14.70;57.80;;;;;;5050173;28;20181;-91
2023/12/04 02:57:08;;;;;;;2.60;2.23;;;14.60;58.60;;;;;;5041640;28;20475;-91
2023/12/04 02:59:34;;;;;;;2.40;2.20;;;14.60;58.80;;;;;;5052585;28;20173;-91
2023/12/04 03:02:00;;;;;;;2.47;2.27;;;14.50;58.50;;;;;;5040423;28;20194;-91
2023/12/04 03:04:39;;;;;;;2.70;2.50;;;14.50;58.40;;;;;;5053424;28;20173;-90
2023/12/04 03:07:05;;;;;;;3.10;2.40;;;14.40;58.60;;;;;;5040713;28;20537;-91
2023/12/04 03:09:31;;;;;;;2.23;2.03;;;14.40;58.50;;;;;;5052809;28;20180;-91
2023/12/04 03:11:57;;;;;;;2.30;2.10;;;14.40;58.90;;;;;;5040507;28;20469;-91
2023/12/04 03:14:23;;;;;;;2.50;2.30;;;14.40;58.10;;;;;;5051972;28;20639;-91
2023/12/04 03:16:56;;;;;;;2.40;2.20;;;14.30;58.50;;;;;;5041476;28;20280;-90
2023/12/04 03:19:22;;;;;;;3.30;2.17;;;14.30;59.00;;;;;;5048894;28;20172;-91
2023/12/04 03:21:48;;;;;;;2.70;2.50;;;14.20;58.90;;;;;;5042344;28;20173;-92
2023/12/04 03:24:30;;;;;;;2.30;2.10;;;14.20;58.10;;;;;;5046686;28;20177;-92
2023/12/04 03:26:57;;;;;;;2.33;2.13;;;14.20;58.80;;;;;;5039869;28;20182;-91
2023/12/04 03:29:23;;;;;;;2.50;2.30;;;14.20;58.70;;;;;;5029275;28;20223;-93
2023/12/04 03:31:52;;;;;;;2.03;1.83;;;14.20;58.50;;;;;;5044896;28;20185;-92
2023/12/04 03:34:32;;;;;;;2.80;2.20;;;14.20;58.10;;;;;;5048138;28;20518;-91
2023/12/04 03:36:58;;;;;;;2.50;2.20;;;14.30;58.00;;;;;;5061090;28;20231;-92
2023/12/04 03:39:26;;;;;;;2.87;2.57;;;14.30;57.50;;;;;;5041961;28;20461;-92
2023/12/04 03:41:52;;;;;;;2.30;2.00;;;14.50;57.80;;;;;;5046084;28;20182;-92
2023/12/04 03:44:18;;;;;;;2.50;2.30;;;14.60;57.90;;;;;;5041846;28;20167;-92
2023/12/04 03:46:43;;;;;;;2.50;2.30;;;14.50;57.00;;;;;;5039428;28;20174;-91
2023/12/04 03:49:10;;;;;;;2.23;2.03;;;14.50;57.00;;;;;;5040158;28;20198;-93
2023/12/04 03:51:36;;;;;;;2.60;2.13;;;14.50;57.20;;;;;;5051675;28;20462;-92
2023/12/04 03:54:02;;;;;;;2.43;2.20;;;14.70;57.30;;;;;;5042460;28;20177;-90
2023/12/04 03:56:27;;;;;;;2.23;2.03;;;14.70;56.50;;;;;;5045583;28;20172;-92
2023/12/04 03:58:53;;;;;;;2.73;2.30;;;14.70;56.50;;;;;;5058996;28;20192;-92
2023/12/04 04:01:19;;;;;;;2.70;2.30;;;14.70;56.60;;;;;;5046410;28;20179;-92
2023/12/04 04:03:45;;;;;;;2.60;2.00;;;14.70;56.10;;;;;;5059808;28;20205;-91
2023/12/04 04:06:11;;;;;;;2.60;2.20;;;14.60;55.70;;;;;;5054956;28;20187;-92
2023/12/04 04:08:37;;;;;;;2.80;2.23;;;14.40;55.90;;;;;;5023640;28;20184;-91
2023/12/04 04:11:03;;;;;;;2.17;1.97;;;14.20;55.90;;;;;;5048067;28;20226;-91
2023/12/04 04:13:29;;;;;;;2.40;2.20;;;14.20;56.90;;;;;;5042217;28;20491;-91
2023/12/04 04:15:55;;;;;;;2.73;2.10;;;14.00;56.60;;;;;;5046976;28;20179;-91
2023/12/04 04:18:21;;;;;;;2.37;2.17;;;13.90;56.50;;;;;;5044984;28;20205;-92
2023/12/04 04:20:48;;;;;;;2.40;2.20;;;13.80;56.90;;;;;;5043924;28;20224;-92
2023/12/04 04:23:14;;;;;;;2.30;2.10;;;13.70;56.90;;;;;;5045958;28;20174;-91
2023/12/04 04:25:39;;;;;;;2.30;2.10;;;13.60;57.10;;;;;;5039445;28;20239;-91
2023/12/04 04:28:05;;;;;;;2.30;2.00;;;13.50;57.60;;;;;;5047905;28;20485;-92
2023/12/04 04:30:31;;;;;;;2.50;2.30;;;14.00;57.90;;;;;;5039594;28;20182;-92
2023/12/04 04:32:57;;;;;;;2.27;2.07;;;15.00;56.40;;;;;;5049518;28;20460;-91
2023/12/04 04:35:22;;;;;;;2.50;2.10;;;16.80;53.90;;;;;;5038729;28;20188;-92
2023/12/04 04:37:48;;;;;;;2.40;2.10;;;18.40;51.40;;;;;;5050263;28;20224;-91
2023/12/04 04:40:14;;;;;;;2.63;2.00;;;19.20;49.50;;;;;;5039234;28;20464;-91
2023/12/04 04:42:40;;;;;;;2.37;2.17;;;20.30;48.00;;;;;;5050234;28;20172;-91
2023/12/04 04:45:06;;;;;;;2.20;2.00;;;20.70;46.90;;;;;;5038843;28;20272;-92
2023/12/04 04:47:31;;;;;;;3.60;2.23;;;20.60;46.40;;;;;;5041536;28;20564;-92
2023/12/04 04:49:57;;;;;;;2.00;1.80;;;20.60;46.40;;;;;;5056492;28;20177;-92
2023/12/04 04:52:23;;;;;;;2.23;2.03;;;20.30;46.40;;;;;;5048478;28;20237;-93
2023/12/04 04:54:49;;;;;;;2.27;2.07;;;19.70;46.50;;;;;;5038914;28;20190;-92
2023/12/04 04:57:14;;;;;;;2.30;2.10;;;18.90;47.30;;;;;;5041987;28;20250;-92
2023/12/04 04:59:40;;;;;;;2.03;1.87;;;18.60;48.00;;;;;;5041638;28;20177;-92
2023/12/04 05:02:06;;;;;;;2.17;1.97;;;18.50;48.30;;;;;;5039813;28;20170;-92
2023/12/04 05:04:32;;;;;;;2.40;2.20;;;18.20;48.70;;;;;;5046279;28;20238;-92
2023/12/04 05:06:57;;;;;;;1.90;1.80;;;17.70;49.00;;;;;;5052606;28;20179;-93
2023/12/04 05:09:24;;;;;;;2.70;1.90;;;17.20;50.00;;;;;;5045711;28;20175;-93
2023/12/04 05:11:50;;;;;;;1.83;1.70;;;16.60;50.30;;;;;;5037287;28;20189;-91
2023/12/04 05:14:15;;;;;;;1.97;1.77;;;15.90;51.10;;;;;;5047569;28;20181;-92
2023/12/04 05:16:41;;;;;;;2.20;2.00;;;15.60;51.90;;;;;;5036175;28;20204;-92
2023/12/04 05:19:07;;;;;;;2.27;1.93;;;15.40;52.60;;;;;;5047841;28;20170;-92
2023/12/04 05:21:33;;;;;;;2.23;2.03;;;15.10;52.70;;;;;;5035843;28;20182;-92
2023/12/04 05:23:58;;;;;;;2.30;2.10;;;14.90;53.20;;;;;;5046536;28;20363;-91
2023/12/04 05:26:24;;;;;;;2.30;2.10;;;14.80;53.60;;;;;;5035602;28;20384;-92
2023/12/04 05:28:50;;;;;;;2.17;1.90;;;14.70;53.80;;;;;;5045247;28;20181;-92
2023/12/04 05:31:16;;;;;;;1.97;1.80;;;14.50;54.20;;;;;;5035721;28;20179;-91
2023/12/04 05:33:41;;;;;;;2.07;1.87;;;14.40;54.20;;;;;;5042753;28;20275;-92
2023/12/04 05:36:07;;;;;;;2.00;1.80;;;14.10;54.20;;;;;;5037349;28;20281;-92
2023/12/04 05:38:33;;;;;;;1.93;1.83;;;14.00;54.60;;;;;;5039225;28;20239;-92
2023/12/04 05:40:59;;;;;;;2.00;1.80;;;13.90;55.10;;;;;;5039039;28;20174;-92
2023/12/04 05:43:25;;;;;;;2.20;2.00;;;13.80;54.90;;;;;;5036147;28;20204;-92
2023/12/04 05:45:50;;;;;;;2.23;1.97;;;13.70;55.70;;;;;;5040477;28;20172;-92
2023/12/04 05:48:16;;;;;;;2.10;1.87;;;13.70;56.00;;;;;;5035177;28;20197;-92
2023/12/04 05:50:42;;;;;;;2.73;1.87;;;14.10;55.70;;;;;;5058813;28;20197;-92
2023/12/04 05:53:09;;;;;;;2.03;1.83;;;15.10;54.70;;;;;;5037822;28;20454;-92
2023/12/04 05:55:34;;;;;;;2.20;2.00;;;16.80;52.50;;;;;;5044307;28;20171;-91
2023/12/04 05:58:00;;;;;;;2.93;1.90;;;17.60;50.50;;;;;;5054582;28;20220;-92
2023/12/04 06:00:26;;;;;;;2.43;2.20;;;18.40;49.00;;;;;;5048791;28;20274;-92
2023/12/04 06:02:57;;;;;;;2.23;2.03;;;18.90;47.90;;;;;;5036820;28;20448;-92
2023/12/04 06:05:24;;;;;;;2.20;2.00;;;19.70;47.20;;;;;;5049191;28;20312;-91
2023/12/04 06:08:03;;;;;;;2.20;2.00;;;20.00;46.70;;;;;;5036768;28;20559;-90
2023/12/04 06:10:29;;;;;;;2.10;1.90;;;20.00;46.00;;;;;;5047091;28;20247;-93
2023/12/04 06:12:55;;;;;;;2.10;1.90;;;19.90;45.70;;;;;;5035751;28;20269;-92
2023/12/04 06:15:21;;;;;;;2.40;2.10;;;19.50;46.10;;;;;;5038452;28;20174;-93
2023/12/04 06:17:46;;;;;;;1.93;1.73;;;19.50;46.50;;;;;;5054492;28;20201;-92
2023/12/04 06:20:12;;;;;;;2.00;1.80;;;19.10;46.70;;;;;;5047297;28;20190;-92
2023/12/04 06:22:38;;;;;;;1.87;1.67;;;18.80;47.00;;;;;;5051366;28;20179;-92
2023/12/04 06:25:05;;;;;;;2.30;1.90;;;17.90;47.60;;;;;;5049563;28;20176;-93
2023/12/04 06:27:31;;;;;;;1.83;1.70;;;17.00;48.70;;;;;;5047877;28;20190;-92
2023/12/04 06:29:58;;;;;;;2.03;1.83;;;16.60;49.40;;;;;;5049711;28;20184;-91
2023/12/04 06:32:24;;;;;;;1.80;1.50;;;15.90;49.80;;;;;;5042109;28;20215;-90
2023/12/04 06:34:50;;;;;;;3.00;1.80;;;15.40;50.60;;;;;;5036573;28;20221;-92
2023/12/04 06:37:16;;;;;;;2.37;2.03;;;15.00;51.30;;;;;;5052039;28;20213;-92
2023/12/04 06:39:44;;;;;;;2.53;1.70;;;14.80;51.10;;;;;;5052562;28;20218;-92
2023/12/04 06:42:11;;;;;;;3.77;2.13;;;14.40;51.80;;;;;;5039402;28;20255;-92
2023/12/04 06:44:37;;;;;;;3.60;2.20;;;14.40;53.10;;;;;;5049978;28;20258;-92
2023/12/04 06:47:04;;;;;;;3.03;2.10;;;14.30;53.60;;;;;;5047780;28;20189;-92
2023/12/04 06:49:32;;;;;;;4.23;2.07;;;14.20;54.30;;;;;;5050990;28;20172;-92
2023/12/04 06:51:59;;;;;;;2.47;1.87;;;14.10;54.70;;;;;;5037662;28;20184;-92
2023/12/04 06:54:25;;;;;;;2.83;2.20;;;14.10;55.00;;;;;;5041132;28;20183;-93
2023/12/04 06:56:51;;;;;;;3.13;2.17;;;14.00;55.00;;;;;;5053763;28;20268;-93
2023/12/04 06:59:25;;;;;;;2.57;2.20;;;13.90;55.20;;;;;;5053405;28;20226;-93
2023/12/04 07:01:53;;;;;;;4.00;2.60;;;13.90;56.00;;;;;;5039309;28;20205;-93
2023/12/04 07:04:20;;;;;;;11.20;2.57;;;13.90;55.70;;;;;;5033875;28;20182;-93
2023/12/04 07:06:48;;;;;;;9.97;2.50;;;14.10;55.90;;;;;;5044022;28;20622;-91
2023/12/04 07:09:14;;;;;;;8.63;3.03;;;15.20;54.50;;;;;;5035993;28;20177;-92
2023/12/04 07:11:40;;;;;;;7.83;2.67;;;16.10;52.50;;;;;;5037680;28;20434;-92
2023/12/04 07:14:06;;;;;;;6.03;2.43;;;17.50;51.10;;;;;;5036752;28;20461;-92
2023/12/04 07:16:40;;;;;;;5.77;2.30;;;18.40;49.90;;;;;;5035503;28;20420;-93
2023/12/04 07:19:05;;;;;;;5.00;2.50;;;18.90;47.80;;;;;;5051615;28;20203;-92
2023/12/04 07:21:31;;;;;;;5.83;2.90;;;18.00;48.90;;;;;;5047174;28;20255;-92
2023/12/04 07:23:57;;;;;;;3.27;2.27;;;17.30;49.40;;;;;;5042072;28;20422;-93
2023/12/04 07:26:23;;;;;;;4.13;2.50;;;16.40;49.90;;;;;;5048412;28;20173;-92
2023/12/04 07:28:48;;;;;;;4.63;2.70;;;15.90;50.60;;;;;;5037555;28;20170;-92
2023/12/04 07:31:14;;;;;;;2.53;2.20;;;15.70;51.00;;;;;;5050982;28;20176;-93
2023/12/04 07:33:40;;;;;;;5.40;2.43;;;15.50;51.60;;;;;;5037170;28;20175;-93
2023/12/04 07:36:07;;;;;;;2.87;2.40;;;15.30;52.10;;;;;;5050551;28;20176;-93
2023/12/04 07:38:33;;;;;;;3.00;2.20;;;15.30;52.50;;;;;;5053541;28;20197;-92
2023/12/04 07:40:59;;;;;;;3.93;2.00;;;15.20;52.80;;;;;;5048826;28;20442;-93
2023/12/04 07:43:24;;;;;;;4.37;2.10;;;15.10;53.10;;;;;;5035365;28;20170;-92
2023/12/04 07:45:50;;;;;;;2.83;1.87;;;15.00;53.20;;;;;;5029733;28;20170;-93
2023/12/04 07:48:16;;;;;;;4.63;2.17;;;14.90;53.10;;;;;;5037657;28;20176;-94
2023/12/04 07:50:42;;;;;;;4.63;2.40;;;14.70;53.50;;;;;;5031505;28;20176;-93
2023/12/04 07:53:09;;;;;;;3.60;2.43;;;14.70;53.70;;;;;;5036157;28;20189;-93
2023/12/04 07:55:35;;;;;;;3.37;2.30;;;14.50;53.30;;;;;;5042929;28;20196;-93
2023/12/04 07:58:01;;;;;;;3.03;2.10;;;14.40;54.00;;;;;;5045436;28;20362;-93
2023/12/04 08:00:27;;;;;;;4.37;2.50;;;14.40;54.00;;;;;;5036691;28;20173;-93
2023/12/04 08:02:53;;;;;;;3.83;2.10;;;14.30;54.10;;;;;;5029798;28;20169;-92
2023/12/04 08:05:19;;;;;;;3.30;2.10;;;14.30;54.50;;;;;;5037045;28;20191;-93
2023/12/04 08:07:45;;;;;;;4.77;2.07;;;14.50;54.30;;;;;;5045520;28;20172;-93
2023/12/04 08:10:11;;;;;;;3.00;2.10;;;14.50;54.30;;;;;;5041725;28;20497;-93
2023/12/04 08:12:37;;;;;;;2.67;2.17;;;14.70;54.50;;;;;;5030031;28;20168;-93
2023/12/04 08:15:04;;;;;;;2.13;1.93;;;14.70;54.10;;;;;;5047181;28;20270;-93
2023/12/04 08:17:30;;;;;;;2.50;2.03;;;14.80;54.20;;;;;;5049415;28;20272;-93
2023/12/04 08:19:56;;;;;;;2.50;2.03;;;14.90;53.90;;;;;;5035962;28;20175;-94
2023/12/04 08:22:21;;;;;;;2.63;1.80;;;15.10;53.80;;;;;;5030976;28;20238;-93
2023/12/04 08:24:47;;;;;;;2.50;1.97;;;15.20;53.50;;;;;;5043346;28;20453;-93
2023/12/04 08:27:13;;;;;;;2.00;1.80;;;15.30;53.30;;;;;;5028664;28;20261;-93
2023/12/04 08:29:41;;;;;;;2.90;2.13;;;15.40;53.30;;;;;;5039824;28;20573;-93
2023/12/04 08:32:07;;;;;;;2.20;1.80;;;15.50;53.00;;;;;;5032125;28;20205;-93
2023/12/04 08:34:33;;;;;;;2.23;2.00;;;15.60;52.80;;;;;;5036581;28;20219;-93
2023/12/04 08:36:59;;;;;;;2.37;2.00;;;15.60;52.40;;;;;;5035058;28;20418;-93
2023/12/04 08:39:24;;;;;;;2.27;1.80;;;15.40;52.80;;;;;;5035737;28;20235;-91
2023/12/04 08:41:50;;;;;;;2.47;2.00;;;15.50;52.60;;;;;;5040842;28;20512;-93
2023/12/04 08:44:17;;;;;;;2.57;1.77;;;15.40;52.80;;;;;;5047810;28;20322;-93
2023/12/04 08:46:44;;;;;;;1.93;1.70;;;15.40;52.80;;;;;;5040859;28;20637;-93
2023/12/04 08:49:10;;;;;;;2.43;2.10;;;15.40;52.30;;;;;;5048970;28;20268;-93
2023/12/04 08:51:35;;;;;;;2.43;2.10;;;15.50;52.70;;;;;;5038233;28;20267;-93
2023/12/04 08:54:02;;;;;;;2.00;1.80;;;15.40;52.50;;;;;;5040174;28;20178;-94
2023/12/04 08:56:29;;;;;;;2.10;1.90;;;15.20;51.80;;;;;;5034372;28;20364;-93
2023/12/04 08:58:55;;;;;;;3.37;2.07;;;15.20;52.60;;;;;;5048936;28;20205;-93
2023/12/04 09:01:21;;;;;;;3.20;2.10;;;15.40;52.10;;;;;;5036403;28;20694;-93
2023/12/04 09:03:47;;;;;;;2.23;1.90;;;15.40;52.30;;;;;;5048498;28;20270;-93
2023/12/04 09:06:15;;;;;;;2.10;1.87;;;15.40;52.00;;;;;;5041897;28;20665;-93
2023/12/04 09:08:41;;;;;;;2.20;2.00;;;15.40;52.70;;;;;;5047716;28;20601;-93
2023/12/04 09:11:07;;;;;;;2.00;1.70;;;15.30;52.20;;;;;;5044413;28;20212;-92
2023/12/04 09:13:34;;;;;;;2.37;2.00;;;15.40;52.60;;;;;;5028223;28;20202;-92
2023/12/04 09:16:00;;;;;;;1.80;1.70;;;15.60;52.30;;;;;;5033767;28;20176;-92
2023/12/04 09:18:26;;;;;;;1.93;1.80;;;15.60;52.40;;;;;;5029949;28;20204;-92
2023/12/04 09:20:51;;;;;;;3.03;1.80;;;15.80;52.30;;;;;;5029207;28;20325;-92
2023/12/04 09:23:17;;;;;;;1.80;1.60;;;15.90;52.10;;;;;;5032918;28;20292;-92
2023/12/04 09:25:43;;;;;;;3.13;1.67;;;16.00;52.10;;;;;;5036472;28;20189;-92
2023/12/04 09:28:09;;;;;;;1.97;1.80;;;16.00;51.80;;;;;;5034669;28;20177;-92
2023/12/04 09:30:37;;;;;;;2.10;1.90;;;15.80;52.10;;;;;;5027282;28;20519;-92
2023/12/04 09:33:03;;;;;;;2.17;1.97;;;15.90;51.90;;;;;;5039413;28;20171;-92
2023/12/04 09:35:29;;;;;;;1.67;1.50;;;15.90;52.10;;;;;;5027175;28;20197;-92
2023/12/04 09:37:55;;;;;;;2.07;1.87;;;15.70;52.00;;;;;;5034971;28;20309;-92
2023/12/04 09:40:34;;;;;;;2.30;1.90;;;15.50;52.00;;;;;;5024280;28;20182;-92
2023/12/04 09:43:00;;;;;;;2.00;1.80;;;15.70;52.10;;;;;;5031088;28;20280;-93
2023/12/04 09:45:28;;;;;;;2.03;1.60;;;15.60;52.40;;;;;;5044444;28;20538;-92
2023/12/04 09:47:56;;;;;;;3.70;1.67;;;15.60;52.00;;;;;;5032904;28;20179;-93
2023/12/04 09:50:22;;;;;;;1.70;1.60;;;15.40;52.60;;;;;;5045323;28;20169;-92
2023/12/04 09:52:53;;;;;;;2.60;1.83;;;15.50;52.50;;;;;;5033561;28;20366;-92
2023/12/04 09:55:18;;;;;;;1.70;1.60;;;15.30;52.40;;;;;;5027582;28;20204;-92
2023/12/04 09:57:45;;;;;;;2.63;1.63;;;15.20;52.70;;;;;;5033020;28;20545;-93
2023/12/04 10:00:22;;;;;;;2.27;1.80;;;15.30;52.70;;;;;;5046532;28;20652;-93
2023/12/04 10:02:53;;;;;;;2.00;1.80;;;15.30;52.80;;;;;;5036931;28;20398;-91
2023/12/04 10:05:19;;;;;;;1.70;1.60;;;15.20;52.30;;;;;;5046427;28;20710;-94
2023/12/04 10:07:59;;;;;;;2.10;1.90;;;15.20;53.00;;;;;;5038223;28;20179;-93
2023/12/04 10:10:25;;;;;;;1.80;1.60;;;15.10;52.40;;;;;;5061048;28;20552;-93
2023/12/04 10:13:09;;;;;;;1.77;1.60;;;15.00;52.70;;;;;;5040234;28;20193;-93
2023/12/04 10:15:49;;;;;;;3.33;1.60;;;14.80;52.70;;;;;;5047034;28;20181;-94
2023/12/04 10:18:33;;;;;;;1.90;1.70;;;15.00;53.30;;;;;;5041775;28;20404;-92
2023/12/04 10:21:02;;;;;;;2.37;1.70;;;14.90;53.20;;;;;;5029655;28;20406;-93
2023/12/04 10:23:42;;;;;;;2.07;1.50;;;14.80;53.00;;;;;;5033096;28;20561;-93
2023/12/04 10:26:08;;;;;;;2.10;1.80;;;14.70;52.80;;;;;;5050207;28;20361;-92
2023/12/04 10:28:34;;;;;;;1.70;1.60;;;14.70;53.30;;;;;;5039488;28;20181;-93
2023/12/04 10:31:01;;;;;;;2.37;1.70;;;14.70;53.10;;;;;;5046888;28;20183;-92
2023/12/04 10:33:29;;;;;;;2.30;1.70;;;14.60;53.20;;;;;;5040390;28;20170;-92
2023/12/04 10:35:58;;;;;;;1.70;1.60;;;14.60;53.10;;;;;;5049736;28;20294;-93
2023/12/04 10:38:32;;;;;;;2.13;1.70;;;14.80;53.20;;;;;;5048093;28;20205;-93
2023/12/04 10:41:25;;;;;;;4.73;1.80;;;14.80;53.40;;;;;;5048061;28;20179;-93
2023/12/04 10:43:51;;;;;;;2.27;1.60;;;14.90;52.70;;;;;;5046988;28;20189;-94
2023/12/04 10:46:18;;;;;;;2.13;1.83;;;14.90;53.40;;;;;;5069293;28;20287;-93
2023/12/04 10:48:47;;;;;;;1.57;1.47;;;14.90;53.30;;;;;;5053252;28;20264;-94
2023/12/04 10:51:17;;;;;;;1.40;1.30;;;14.90;53.00;;;;;;5046521;28;20562;-94
2023/12/04 10:53:49;;;;;;;1.63;1.37;;;14.90;53.00;;;;;;5039494;28;20195;-94
2023/12/04 10:56:25;;;;;;;2.20;1.80;;;14.80;52.90;;;;;;5046053;28;20262;-94
2023/12/04 10:59:01;;;;;;;2.10;1.90;;;14.80;53.30;;;;;;5037397;28;20238;-93
2023/12/04 11:01:28;;;;;;;1.90;1.70;;;14.80;53.20;;;;;;5040268;28;20174;-93
2023/12/04 11:03:58;;;;;;;2.37;1.60;;;14.80;53.30;;;;;;5034347;28;20429;-93
2023/12/04 11:06:25;;;;;;;1.70;1.60;;;14.80;53.30;;;;;;5048485;28;20174;-93
2023/12/04 11:08:58;;;;;;;3.93;1.90;;;14.80;53.30;;;;;;5039362;28;20194;-93
2023/12/04 11:11:55;;;;;;;1.60;1.50;;;14.90;53.10;;;;;;5043859;28;20234;-94
2023/12/04 11:14:37;;;;;;;1.83;1.50;;;15.30;52.90;;;;;;5061391;28;20178;-94
2023/12/04 11:17:11;;;;;;;2.97;1.50;;;15.60;52.10;;;;;;5042646;28;20291;-93
2023/12/04 11:19:46;;;;;;;2.00;1.80;;;15.40;52.20;;;;;;5038594;28;20173;-93
2023/12/04 11:22:14;;;;;;;1.90;1.70;;;15.40;52.60;;;;;;5041989;28;20216;-93
2023/12/04 11:24:40;;;;;;;2.63;1.80;;;15.40;52.40;;;;;;5036924;28;20208;-93
2023/12/04 11:27:08;;;;;;;2.80;1.90;;;15.30;52.50;;;;;;5058090;28;20591;-93
2023/12/04 11:29:36;;;;;;;3.20;1.70;;;15.40;52.30;;;;;;5061477;28;20177;-93
2023/12/04 11:32:06;;;;;;;2.63;1.80;;;15.40;52.20;;;;;;5050248;28;20503;-94
2023/12/04 11:34:34;;;;;;;2.10;1.90;;;15.30;52.40;;;;;;5069887;28;20191;-94
2023/12/04 11:37:02;;;;;;;3.87;1.83;;;15.30;52.20;;;;;;5050400;28;20175;-94
2023/12/04 11:39:28;;;;;;;2.17;1.70;;;15.40;52.20;;;;;;5035175;28;20180;-93
2023/12/04 11:41:55;;;;;;;2.07;1.73;;;15.20;52.30;;;;;;5047867;28;20417;-93
2023/12/04 11:44:20;;;;;;;1.77;1.50;;;15.30;52.30;;;;;;5052838;28;20173;-93
2023/12/04 11:46:57;;;;;;;2.90;2.07;;;15.20;52.60;;;;;;5054541;28;20185;-94
2023/12/04 11:49:40;;;;;;;2.60;1.57;;;15.30;52.50;;;;;;5038935;28;20176;-93
2023/12/04 11:52:31;;;;;;;2.10;1.90;;;15.20;52.70;;;;;;5041143;28;20164;-92
2023/12/04 11:55:05;;;;;;;2.37;2.07;;;15.20;52.30;;;;;;5051531;28;20177;-93
2023/12/04 11:57:44;;;;;;;2.40;2.10;;;15.30;52.40;;;;;;5037308;28;20243;-93
2023/12/04 12:00:22;;;;;;;2.70;1.87;;;15.20;52.00;;;;;;5051563;28;20184;-93
2023/12/04 12:02:54;;;;;;;2.10;1.83;;;15.30;52.80;;;;;;5034675;28;20353;-93
2023/12/04 12:05:21;;;;;;;2.17;1.97;;;15.10;52.50;;;;;;5047637;28;20179;-93
2023/12/04 12:07:47;;;;;;;2.37;1.83;;;15.30;52.50;;;;;;5038848;28;20187;-92
2023/12/04 12:10:13;;;;;;;2.20;2.00;;;15.10;52.20;;;;;;5028211;28;20241;-93
2023/12/04 12:12:46;;;;;;;2.10;1.90;;;15.20;52.70;;;;;;5028491;28;20174;-92
2023/12/04 12:15:13;;;;;;;4.23;2.10;;;15.10;52.40;;;;;;5046788;28;20194;-92
2023/12/04 12:17:41;;;;;;;2.10;1.90;;;15.20;52.50;;;;;;5045507;28;20625;-93
2023/12/04 12:20:08;;;;;;;2.37;1.93;;;15.20;52.50;;;;;;5029591;28;20174;-92
2023/12/04 12:22:37;;;;;;;2.47;2.00;;;15.20;52.30;;;;;;5032294;28;20167;-93
2023/12/04 12:25:07;;;;;;;2.43;1.87;;;15.20;52.30;;;;;;5047453;28;20435;-92
2023/12/04 12:27:35;;;;;;;2.83;2.00;;;15.10;52.30;;;;;;5045207;28;20379;-92
2023/12/04 12:30:03;;;;;;;3.40;2.10;;;15.30;52.40;;;;;;5034041;28;20287;-93
2023/12/04 12:32:29;;;;;;;2.93;2.30;;;15.30;52.50;;;;;;5037285;28;20170;-92
2023/12/04 12:34:54;;;;;;;3.43;2.17;;;15.20;52.50;;;;;;5037435;28;20188;-92
2023/12/04 12:37:21;;;;;;;2.20;2.00;;;15.10;52.60;;;;;;5031967;28;20480;-93
2023/12/04 12:39:47;;;;;;;2.10;1.90;;;15.10;52.60;;;;;;5035067;28;20239;-92
2023/12/04 12:42:22;;;;;;;2.90;1.90;;;15.10;52.90;;;;;;5030128;28;20296;-93
2023/12/04 12:44:48;;;;;;;4.17;2.20;;;15.10;52.70;;;;;;5034238;28;20174;-92
2023/12/04 12:47:17;;;;;;;2.00;1.80;;;15.00;52.90;;;;;;5025707;28;20174;-92
2023/12/04 12:49:44;;;;;;;1.90;1.73;;;14.90;52.80;;;;;;5021812;28;20273;-92